createdAt,value
2023-01-09T00:01:28.078Z,4.27
2023-01-09T00:03:55.767Z,4.33
2023-01-09T00:06:23.461Z,4.19
2023-01-09T00:08:50.764Z,4.16
2023-01-09T00:11:18.019Z,4.21
2023-01-09T00:13:45.540Z,4.73
2023-01-09T00:16:12.944Z,4.62
2023-01-09T00:18:40.508Z,4.65
2023-01-09T00:21:10.419Z,4.66
2023-01-09T00:23:37.742Z,4.55
2023-01-09T00:26:17.896Z,4.39
2023-01-09T00:28:51.054Z,4.32
2023-01-09T00:31:19.295Z,4.27
2023-01-09T00:34:02.573Z,4.72
2023-01-09T00:36:30.203Z,5.12
2023-01-09T00:38:57.727Z,5.10
2023-01-09T00:41:32.158Z,4.90
2023-01-09T00:44:13.433Z,4.84
2023-01-09T00:46:45.505Z,4.84
2023-01-09T00:49:14.808Z,4.91
2023-01-09T00:51:42.908Z,4.92
2023-01-09T00:54:14.209Z,4.90
2023-01-09T00:56:41.527Z,4.84
2023-01-09T00:59:09.052Z,4.81
2023-01-09T01:01:36.356Z,4.90
2023-01-09T01:04:23.721Z,5.11
2023-01-09T01:07:09.595Z,5.26
2023-01-09T01:09:36.918Z,5.17
2023-01-09T01:12:07.246Z,5.08
2023-01-09T01:14:39.167Z,5.15
2023-01-09T01:17:06.927Z,5.30
2023-01-09T01:19:35.594Z,5.29
2023-01-09T01:22:03.555Z,5.30
2023-01-09T01:24:31.469Z,5.26
2023-01-09T01:26:58.805Z,5.27
2023-01-09T01:29:26.162Z,5.39
2023-01-09T01:31:54.176Z,5.49
2023-01-09T01:34:21.402Z,6.28
2023-01-09T01:36:48.624Z,6.31
2023-01-09T01:39:17.199Z,6.35
2023-01-09T01:41:44.441Z,6.38
2023-01-09T01:45:07.981Z,6.91
2023-01-09T01:48:07.320Z,6.84
2023-01-09T01:50:43.669Z,6.78
2023-01-09T01:53:17.983Z,6.63
2023-01-09T01:56:22.595Z,6.41
2023-01-09T01:58:59.141Z,6.35
2023-01-09T02:01:28.076Z,6.24
2023-01-09T02:03:58.110Z,5.97
2023-01-09T02:06:26.691Z,5.91
2023-01-09T02:08:54.708Z,6.22
2023-01-09T02:11:22.342Z,6.14
2023-01-09T02:13:49.716Z,6.11
2023-01-09T02:16:33.482Z,6.26
2023-01-09T02:19:45.021Z,6.70
2023-01-09T02:22:50.698Z,6.71
2023-01-09T02:25:45.712Z,7.00
2023-01-09T02:29:04.015Z,7.16
2023-01-09T02:31:39.075Z,7.20
2023-01-09T02:34:35.071Z,7.35
2023-01-09T02:37:32.013Z,7.85
2023-01-09T02:40:27.581Z,7.95
2023-01-09T02:42:57.548Z,8.21
2023-01-09T02:45:24.885Z,8.25
2023-01-09T02:47:52.170Z,8.31
2023-01-09T02:50:28.604Z,8.46
2023-01-09T02:53:28.060Z,8.50
2023-01-09T02:56:14.175Z,8.54
2023-01-09T02:59:15.337Z,8.38
2023-01-09T03:02:17.279Z,8.18
2023-01-09T03:05:23.597Z,8.04
2023-01-09T03:08:08.697Z,8.11
2023-01-09T03:10:59.830Z,8.27
2023-01-09T03:13:35.944Z,8.24
2023-01-09T03:16:08.105Z,8.30
2023-01-09T03:18:37.281Z,8.26
2023-01-09T03:21:08.218Z,8.10
2023-01-09T03:23:58.732Z,8.01
2023-01-09T03:26:29.183Z,8.24
2023-01-09T03:28:57.696Z,8.48
2023-01-09T03:31:25.007Z,8.61
2023-01-09T03:33:52.391Z,8.85
2023-01-09T03:36:21.397Z,8.90
2023-01-09T03:38:49.128Z,9.04
2023-01-09T03:41:16.541Z,9.16
2023-01-09T03:43:43.781Z,9.24
2023-01-09T03:46:11.089Z,9.28
2023-01-09T03:48:38.453Z,9.33
2023-01-09T03:51:05.822Z,9.37
2023-01-09T03:53:33.053Z,9.37
2023-01-09T03:56:00.553Z,9.30
2023-01-09T03:58:28.280Z,9.29
2023-01-09T04:01:02.421Z,9.36
2023-01-09T04:03:29.901Z,9.23
2023-01-09T04:05:57.191Z,8.90
2023-01-09T04:08:24.471Z,8.97
2023-01-09T04:10:52.048Z,9.11
2023-01-09T04:13:19.451Z,9.10
2023-01-09T04:15:46.786Z,9.20
2023-01-09T04:18:14.953Z,9.05
2023-01-09T04:20:42.965Z,9.00
2023-01-09T04:23:10.195Z,9.13
2023-01-09T04:25:37.374Z,9.03
2023-01-09T04:28:04.827Z,8.66
2023-01-09T04:30:32.024Z,8.42
2023-01-09T04:32:59.226Z,8.42
2023-01-09T04:35:26.426Z,8.50
2023-01-09T04:37:53.701Z,8.73
2023-01-09T04:40:21.097Z,8.72
2023-01-09T04:42:48.262Z,8.88
2023-01-09T04:45:17.225Z,8.76
2023-01-09T04:47:45.002Z,8.72
2023-01-09T04:50:13.587Z,8.86
2023-01-09T04:52:40.935Z,8.66
2023-01-09T04:55:09.501Z,8.63
2023-01-09T04:57:38.371Z,8.92
2023-01-09T05:00:12.281Z,9.26
2023-01-09T05:02:40.721Z,9.33
2023-01-09T05:05:11.944Z,9.40
2023-01-09T05:07:39.988Z,9.49
2023-01-09T05:10:09.338Z,9.63
2023-01-09T05:12:37.171Z,9.58
2023-01-09T05:15:06.712Z,9.52
2023-01-09T05:17:33.958Z,9.54
2023-01-09T05:20:01.194Z,9.53
2023-01-09T05:22:28.465Z,9.56
2023-01-09T05:24:55.698Z,9.57
2023-01-09T05:27:22.943Z,9.64
2023-01-09T05:29:50.106Z,9.64
2023-01-09T05:32:17.384Z,9.52
2023-01-09T05:34:44.564Z,9.55
2023-01-09T05:37:11.975Z,9.47
2023-01-09T05:39:39.229Z,9.50
2023-01-09T05:42:06.405Z,9.53
2023-01-09T05:44:33.649Z,9.58
2023-01-09T05:47:02.703Z,9.56
2023-01-09T05:49:30.271Z,9.55
2023-01-09T05:51:57.468Z,9.54
2023-01-09T05:54:24.836Z,9.75
2023-01-09T05:56:51.996Z,9.67
2023-01-09T05:59:19.705Z,9.55
2023-01-09T06:01:47.027Z,9.64
2023-01-09T06:04:14.268Z,9.54
2023-01-09T06:06:41.620Z,9.60
2023-01-09T06:09:08.992Z,9.63
2023-01-09T06:11:38.368Z,9.64
2023-01-09T06:14:06.452Z,9.56
2023-01-09T06:16:33.784Z,9.66
2023-01-09T06:19:01.122Z,9.74
2023-01-09T06:21:29.590Z,9.59
2023-01-09T06:23:56.929Z,9.60
2023-01-09T06:26:26.072Z,9.70
2023-01-09T06:28:55.873Z,9.54
2023-01-09T06:31:25.189Z,9.48
2023-01-09T06:33:52.864Z,9.42
2023-01-09T06:36:22.445Z,9.45
2023-01-09T06:38:49.857Z,9.56
2023-01-09T06:41:17.397Z,9.56
2023-01-09T06:43:45.212Z,9.28
2023-01-09T06:46:12.623Z,9.25
2023-01-09T06:48:39.861Z,9.26
2023-01-09T06:51:07.143Z,9.28
2023-01-09T06:53:35.206Z,9.29
2023-01-09T06:56:02.931Z,9.27
2023-01-09T06:58:30.083Z,9.45
2023-01-09T07:00:59.792Z,9.27
2023-01-09T07:03:27.160Z,9.30
2023-01-09T07:05:54.530Z,9.25
2023-01-09T07:08:22.019Z,9.31
2023-01-09T07:10:49.301Z,9.26
2023-01-09T07:13:16.573Z,9.26
2023-01-09T07:15:43.834Z,9.36
2023-01-09T07:18:11.174Z,9.29
2023-01-09T07:20:42.160Z,9.36
2023-01-09T07:23:13.435Z,9.49
2023-01-09T07:25:45.094Z,9.58
2023-01-09T07:28:12.443Z,9.63
2023-01-09T07:30:39.688Z,9.72
2023-01-09T07:33:06.927Z,9.76
2023-01-09T07:35:34.637Z,9.83
2023-01-09T07:38:01.967Z,10.02
2023-01-09T07:40:29.405Z,10.07
2023-01-09T07:42:56.658Z,10.20
2023-01-09T07:45:23.907Z,10.13
2023-01-09T07:47:52.411Z,10.65
2023-01-09T07:50:20.609Z,10.85
2023-01-09T07:52:48.390Z,11.01
2023-01-09T07:55:17.453Z,11.43
2023-01-09T07:57:50.290Z,11.43
2023-01-09T08:00:18.986Z,11.41
2023-01-09T08:02:46.163Z,11.28
2023-01-09T08:05:15.863Z,11.10
2023-01-09T08:07:43.469Z,11.21
2023-01-09T08:10:11.953Z,11.13
2023-01-09T08:12:43.575Z,11.18
2023-01-09T08:15:12.105Z,11.27
2023-01-09T08:17:44.834Z,11.10
2023-01-09T08:20:15.047Z,11.04
2023-01-09T08:22:43.943Z,11.03
2023-01-09T08:25:12.610Z,10.78
2023-01-09T08:27:40.468Z,10.76
2023-01-09T08:30:09.915Z,10.68
2023-01-09T08:32:37.848Z,10.64
2023-01-09T08:35:06.026Z,10.71
2023-01-09T08:37:33.331Z,10.61
2023-01-09T08:40:00.596Z,10.61
2023-01-09T08:42:46.591Z,10.58
2023-01-09T08:45:32.605Z,10.50
2023-01-09T08:48:00.011Z,10.55
2023-01-09T08:50:27.286Z,10.58
2023-01-09T08:52:54.430Z,10.55
2023-01-09T08:55:21.729Z,10.41
2023-01-09T08:57:54.234Z,10.49
2023-01-09T09:00:24.440Z,10.26
2023-01-09T09:02:59.860Z,10.06
2023-01-09T09:05:30.316Z,10.12
2023-01-09T09:07:58.471Z,10.11
2023-01-09T09:10:30.538Z,9.92
2023-01-09T09:12:59.771Z,9.92
2023-01-09T09:15:28.612Z,9.77
2023-01-09T09:18:02.592Z,9.71
2023-01-09T09:20:36.343Z,9.57
2023-01-09T09:23:04.559Z,9.55
2023-01-09T09:25:32.513Z,9.61
2023-01-09T09:28:01.292Z,9.68
2023-01-09T09:30:28.760Z,9.67
2023-01-09T09:32:56.402Z,9.82
2023-01-09T09:35:23.772Z,9.79
2023-01-09T09:38:05.349Z,9.82
2023-01-09T09:41:08.060Z,9.68
2023-01-09T09:44:13.310Z,9.67
2023-01-09T09:46:53.162Z,9.87
2023-01-09T09:49:54.071Z,9.87
2023-01-09T09:52:34.735Z,10.15
2023-01-09T09:55:15.116Z,10.12
2023-01-09T09:57:44.061Z,10.02
2023-01-09T10:00:19.877Z,9.92
2023-01-09T10:03:23.216Z,10.08
2023-01-09T10:05:55.006Z,9.95
2023-01-09T10:08:49.933Z,10.10
2023-01-09T10:11:55.481Z,10.34
2023-01-09T10:14:24.760Z,10.26
2023-01-09T10:16:58.327Z,10.57
2023-01-09T10:19:40.500Z,10.74
2023-01-09T10:22:39.547Z,10.79
2023-01-09T10:25:42.814Z,10.92
2023-01-09T10:28:53.485Z,10.79
2023-01-09T10:32:10.366Z,10.67
2023-01-09T10:35:15.135Z,10.56
2023-01-09T10:37:46.705Z,10.87
2023-01-09T10:40:26.872Z,10.96
2023-01-09T10:43:05.244Z,10.74
2023-01-09T10:45:41.606Z,10.94
2023-01-09T10:48:28.063Z,10.76
2023-01-09T10:50:57.011Z,10.87
2023-01-09T10:53:35.403Z,10.85
2023-01-09T10:56:24.554Z,10.96
2023-01-09T10:58:54.465Z,10.97
2023-01-09T11:01:39.509Z,10.85
2023-01-09T11:04:34.608Z,10.94
2023-01-09T11:07:26.295Z,11.06
2023-01-09T11:10:15.846Z,10.88
2023-01-09T11:12:43.407Z,10.65
2023-01-09T11:15:29.183Z,10.54
2023-01-09T11:18:21.517Z,10.71
2023-01-09T11:20:49.156Z,10.81
2023-01-09T11:23:32.429Z,10.83
2023-01-09T11:26:03.169Z,10.64
2023-01-09T11:28:30.977Z,10.67
2023-01-09T11:31:02.363Z,10.45
2023-01-09T11:33:36.150Z,10.41
2023-01-09T11:36:10.816Z,10.37
2023-01-09T11:38:57.032Z,10.39
2023-01-09T11:41:35.263Z,10.40
2023-01-09T11:44:04.993Z,10.20
2023-01-09T11:46:41.965Z,10.31
2023-01-09T11:49:15.379Z,10.56
2023-01-09T11:51:44.007Z,10.62
2023-01-09T11:54:30.900Z,10.58
2023-01-09T11:56:58.281Z,10.57
2023-01-09T11:59:29.159Z,10.51
2023-01-09T12:02:34.656Z,10.40
2023-01-09T12:05:13.110Z,10.32
2023-01-09T12:08:14.252Z,10.24
2023-01-09T12:10:56.778Z,10.26
2023-01-09T12:14:06.607Z,10.27
2023-01-09T12:16:46.230Z,10.22
2023-01-09T12:19:28.290Z,9.95
2023-01-09T12:22:07.982Z,9.85
2023-01-09T12:25:14.788Z,9.91
2023-01-09T12:28:22.347Z,9.70
2023-01-09T12:31:18.235Z,9.80
2023-01-09T12:34:12.559Z,9.70
2023-01-09T12:36:49.455Z,9.66
2023-01-09T12:39:47.339Z,9.72
2023-01-09T12:42:24.135Z,9.72
2023-01-09T12:45:03.373Z,9.66
2023-01-09T12:47:46.031Z,9.52
2023-01-09T12:50:48.213Z,9.45
2023-01-09T12:53:27.381Z,9.51
2023-01-09T12:56:15.999Z,9.55
2023-01-09T12:59:07.121Z,9.38
2023-01-09T13:01:43.609Z,9.56
2023-01-09T13:04:17.004Z,9.57
2023-01-09T13:06:58.163Z,9.46
2023-01-09T13:09:39.976Z,9.33
2023-01-09T13:12:21.469Z,9.36
2023-01-09T13:15:19.508Z,9.40
2023-01-09T13:17:56.132Z,9.57
2023-01-09T13:20:44.722Z,9.44
2023-01-09T13:23:50.939Z,9.42
2023-01-09T13:26:43.963Z,9.43
2023-01-09T13:29:25.208Z,9.54
2023-01-09T13:32:22.014Z,9.66
2023-01-09T13:34:54.909Z,9.41
2023-01-09T13:37:30.684Z,9.45
2023-01-09T13:40:02.297Z,9.34
2023-01-09T13:42:36.193Z,9.31
2023-01-09T13:45:25.574Z,9.52
2023-01-09T13:48:11.866Z,9.26
2023-01-09T13:50:40.801Z,9.24
2023-01-09T13:53:20.006Z,9.30
2023-01-09T13:55:59.944Z,9.19
2023-01-09T13:58:37.674Z,9.27
2023-01-09T14:01:22.793Z,9.00
2023-01-09T14:04:15.070Z,8.88
2023-01-09T14:06:45.062Z,8.94
2023-01-09T14:09:22.788Z,8.85
2023-01-09T14:12:06.365Z,8.75
2023-01-09T14:14:35.126Z,8.73
2023-01-09T14:17:03.573Z,8.49
2023-01-09T14:19:38.771Z,8.75
2023-01-09T14:22:08.028Z,8.71
2023-01-09T14:24:47.232Z,8.51
2023-01-09T14:27:55.848Z,8.35
2023-01-09T14:31:08.883Z,8.39
2023-01-09T14:33:36.476Z,8.47
2023-01-09T14:36:19.683Z,8.30
2023-01-09T14:39:05.774Z,8.37
2023-01-09T14:42:06.480Z,8.21
2023-01-09T14:44:50.925Z,8.29
2023-01-09T14:47:48.638Z,8.33
2023-01-09T14:50:46.659Z,8.34
2023-01-09T14:53:18.778Z,8.28
2023-01-09T14:55:55.393Z,8.28
2023-01-09T14:58:33.146Z,8.32
2023-01-09T15:01:23.024Z,8.06
2023-01-09T15:03:59.029Z,8.05
2023-01-09T15:06:32.814Z,8.25
2023-01-09T15:09:09.065Z,8.09
2023-01-09T15:11:39.945Z,7.95
2023-01-09T15:14:10.235Z,7.99
2023-01-09T15:16:37.587Z,7.99
2023-01-09T15:19:08.938Z,7.98
2023-01-09T15:21:36.282Z,8.05
2023-01-09T15:24:27.181Z,8.02
2023-01-09T15:27:19.153Z,7.90
2023-01-09T15:29:46.492Z,7.79
2023-01-09T15:32:28.980Z,7.83
2023-01-09T15:34:57.620Z,7.91
2023-01-09T15:37:39.145Z,7.74
2023-01-09T15:40:22.928Z,7.87
2023-01-09T15:42:57.284Z,7.96
2023-01-09T15:45:39.575Z,7.98
2023-01-09T15:48:18.755Z,7.96
2023-01-09T15:50:48.850Z,8.07
2023-01-09T15:53:20.905Z,8.04
2023-01-09T15:56:16.329Z,8.14
2023-01-09T15:58:47.303Z,8.01
2023-01-09T16:01:35.632Z,7.97
2023-01-09T16:04:13.611Z,7.92
2023-01-09T16:06:52.795Z,7.92
2023-01-09T16:09:31.038Z,8.00
2023-01-09T16:12:02.207Z,7.94
2023-01-09T16:14:39.988Z,8.01
2023-01-09T16:17:15.884Z,7.84
2023-01-09T16:19:51.948Z,7.90
2023-01-09T16:22:29.180Z,7.78
2023-01-09T16:25:03.530Z,7.71
2023-01-09T16:27:34.295Z,7.82
2023-01-09T16:30:05.730Z,7.75
2023-01-09T16:32:52.664Z,7.41
2023-01-09T16:35:24.724Z,7.53
2023-01-09T16:37:51.963Z,7.58
2023-01-09T16:40:22.106Z,7.67
2023-01-09T16:43:01.203Z,7.88
2023-01-09T16:45:36.428Z,7.81
2023-01-09T16:48:15.299Z,7.90
2023-01-09T16:50:44.530Z,7.66
2023-01-09T16:53:27.143Z,7.82
2023-01-09T16:55:55.081Z,7.58
2023-01-09T16:58:31.297Z,7.84
2023-01-09T17:00:59.608Z,7.86
2023-01-09T17:03:26.860Z,7.82
2023-01-09T17:05:59.983Z,7.71
2023-01-09T17:08:34.804Z,7.75
2023-01-09T17:11:04.066Z,7.72
2023-01-09T17:13:31.426Z,7.49
2023-01-09T17:15:59.945Z,7.67
2023-01-09T17:18:29.632Z,7.57
2023-01-09T17:20:59.357Z,7.60
2023-01-09T17:23:26.801Z,7.70
2023-01-09T17:26:16.912Z,7.76
2023-01-09T17:28:49.645Z,7.71
2023-01-09T17:31:17.833Z,7.66
2023-01-09T17:33:45.087Z,7.59
2023-01-09T17:36:32.580Z,7.46
2023-01-09T17:39:00.569Z,7.55
2023-01-09T17:41:31.779Z,7.46
2023-01-09T17:44:00.339Z,7.58
2023-01-09T17:46:34.035Z,7.36
2023-01-09T17:49:02.139Z,7.31
2023-01-09T17:51:30.115Z,7.34
2023-01-09T17:53:57.860Z,7.37
2023-01-09T17:56:32.477Z,7.23
2023-01-09T17:59:00.008Z,7.41
2023-01-09T18:01:27.419Z,7.20
2023-01-09T18:03:54.912Z,7.18
2023-01-09T18:06:22.715Z,7.34
2023-01-09T18:08:50.375Z,7.27
2023-01-09T18:11:23.600Z,7.14
2023-01-09T18:13:56.404Z,7.24
2023-01-09T18:16:27.040Z,7.19
2023-01-09T18:18:57.924Z,7.18
2023-01-09T18:21:27.552Z,7.25
2023-01-09T18:23:56.202Z,7.18
2023-01-09T18:26:23.849Z,7.22
2023-01-09T18:28:57.828Z,7.16
2023-01-09T18:31:27.959Z,7.15
2023-01-09T18:33:57.966Z,7.18
2023-01-09T18:36:30.986Z,7.14
2023-01-09T18:39:00.853Z,7.06
2023-01-09T18:41:29.191Z,7.24
2023-01-09T18:44:01.386Z,7.28
2023-01-09T18:46:32.477Z,7.48
2023-01-09T18:49:03.091Z,7.49
2023-01-09T18:51:32.637Z,7.50
2023-01-09T18:54:00.160Z,7.62
2023-01-09T18:56:27.618Z,7.50
2023-01-09T18:58:57.296Z,7.41
2023-01-09T19:01:25.940Z,7.38
2023-01-09T19:03:53.592Z,7.39
2023-01-09T19:06:20.955Z,7.31
2023-01-09T19:08:48.384Z,7.26
2023-01-09T19:11:16.043Z,7.37
2023-01-09T19:13:43.729Z,7.15
2023-01-09T19:16:11.697Z,7.09
2023-01-09T19:18:41.825Z,7.17
2023-01-09T19:21:17.715Z,7.07
2023-01-09T19:23:46.627Z,6.96
2023-01-09T19:26:23.706Z,6.77
2023-01-09T19:28:51.999Z,6.83
2023-01-09T19:31:19.377Z,6.76
2023-01-09T19:33:46.662Z,6.73
2023-01-09T19:36:14.097Z,6.79
2023-01-09T19:38:41.451Z,6.79
2023-01-09T19:41:14.239Z,6.76
2023-01-09T19:43:42.429Z,6.71
2023-01-09T19:46:14.090Z,6.76
2023-01-09T19:48:43.183Z,6.66
2023-01-09T19:51:11.787Z,6.66
2023-01-09T19:53:39.480Z,6.76
2023-01-09T19:56:20.663Z,6.61
2023-01-09T19:58:54.948Z,6.62
2023-01-09T20:01:29.873Z,6.67
2023-01-09T20:04:02.974Z,6.67
2023-01-09T20:06:31.446Z,6.67
2023-01-09T20:09:02.576Z,6.61
2023-01-09T20:11:32.406Z,6.63
2023-01-09T20:13:59.931Z,6.50
2023-01-09T20:16:30.541Z,6.46
2023-01-09T20:19:02.682Z,6.42
2023-01-09T20:21:30.475Z,6.41
2023-01-09T20:24:00.788Z,6.52
2023-01-09T20:26:29.303Z,6.47
2023-01-09T20:28:57.303Z,6.35
2023-01-09T20:31:31.336Z,6.30
2023-01-09T20:33:59.929Z,6.46
2023-01-09T20:36:30.287Z,6.45
2023-01-09T20:39:03.620Z,6.36
2023-01-09T20:41:31.532Z,6.38
2023-01-09T20:44:02.872Z,6.40
2023-01-09T20:46:33.744Z,6.41
2023-01-09T20:49:06.590Z,6.38
2023-01-09T20:51:37.023Z,6.52
2023-01-09T20:54:04.580Z,6.45
2023-01-09T20:56:32.865Z,6.75
2023-01-09T20:59:00.958Z,6.61
2023-01-09T21:01:28.651Z,6.54
2023-01-09T21:03:57.266Z,6.39
2023-01-09T21:06:26.222Z,6.26
2023-01-09T21:08:53.793Z,6.29
2023-01-09T21:11:22.280Z,6.25
2023-01-09T21:13:50.914Z,6.16
2023-01-09T21:16:21.834Z,6.20
2023-01-09T21:18:49.604Z,6.20
2023-01-09T21:21:20.637Z,6.12
2023-01-09T21:23:54.728Z,6.22
2023-01-09T21:26:27.520Z,6.34
2023-01-09T21:28:57.572Z,6.26
2023-01-09T21:31:35.375Z,6.16
2023-01-09T21:34:07.144Z,6.18
2023-01-09T21:36:35.543Z,6.32
2023-01-09T21:39:07.445Z,6.22
2023-01-09T21:41:54.117Z,6.43
2023-01-09T21:44:40.459Z,6.43
2023-01-09T21:47:07.960Z,6.38
2023-01-09T21:49:36.179Z,6.53
2023-01-09T21:52:04.762Z,6.44
2023-01-09T21:54:32.621Z,6.47
2023-01-09T21:57:00.873Z,6.37
2023-01-09T21:59:32.005Z,6.44
2023-01-09T22:01:59.790Z,6.31
2023-01-09T22:04:29.355Z,6.17
2023-01-09T22:06:57.014Z,6.27
2023-01-09T22:09:24.413Z,6.27
2023-01-09T22:11:51.761Z,6.34
2023-01-09T22:14:20.631Z,6.36
2023-01-09T22:16:48.250Z,6.41
2023-01-09T22:19:19.617Z,6.38
2023-01-09T22:21:47.156Z,6.38
2023-01-09T22:24:17.502Z,6.54
2023-01-09T22:26:45.433Z,6.54
2023-01-09T22:29:12.726Z,6.66
2023-01-09T22:31:40.873Z,6.66
2023-01-09T22:34:13.800Z,6.49
2023-01-09T22:36:41.416Z,6.51
2023-01-09T22:39:11.993Z,6.47
2023-01-09T22:41:39.310Z,6.41
2023-01-09T22:44:06.595Z,6.56
2023-01-09T22:46:34.336Z,6.43
2023-01-09T22:49:02.890Z,6.49
2023-01-09T22:51:33.748Z,6.50
2023-01-09T22:54:01.345Z,6.54
2023-01-09T22:56:29.046Z,6.70
2023-01-09T22:58:59.169Z,6.70
2023-01-09T23:01:26.760Z,6.64
2023-01-09T23:03:54.111Z,6.55
2023-01-09T23:06:23.227Z,6.70
2023-01-09T23:08:52.869Z,6.68
2023-01-09T23:11:48.571Z,6.70
2023-01-09T23:14:16.252Z,6.77
2023-01-09T23:16:43.967Z,6.66
2023-01-09T23:19:17.431Z,6.61
2023-01-09T23:21:45.811Z,6.66
2023-01-09T23:24:15.632Z,6.70
2023-01-09T23:26:43.990Z,6.55
2023-01-09T23:29:12.226Z,6.59
2023-01-09T23:31:39.545Z,6.51
2023-01-09T23:34:08.315Z,6.44
2023-01-09T23:36:36.278Z,6.42
2023-01-09T23:39:08.772Z,6.41
2023-01-09T23:41:58.445Z,6.48
2023-01-09T23:44:26.479Z,6.56
2023-01-09T23:46:53.979Z,6.52
2023-01-09T23:49:21.586Z,6.41
2023-01-09T23:51:49.147Z,6.44
2023-01-09T23:54:17.328Z,6.45
2023-01-09T23:56:44.837Z,6.38
2023-01-09T23:59:14.451Z,6.33
